ORK weather

Cork Airport
Cork, County Cork, Ireland

Public forecast

Using degrees Celsius for public forecast. Weather courtesy of forecast.io.

METAR (pilot weather report)

Retrieved 2019/04/25 09:30 UTC (0 seconds ago):

EICK 250930Z 07010KT 9999 -SHRA SCT012 BKN020 10/07 Q0990 NOSIG

TAF (pilot weather forecast)

Retrieved 2019/04/25 06:10 UTC (3 hours ago):

TAF EICK 250500Z 2506/2606 06010KT 9999 SCT010 SCT020 TEMPO 2506/2509 3000 BR BKN008 PROB30 TEMPO 2506/2508 0800 FG BKN004 TEMPO 2508/2515 4000 -SHRA BKN009 SCT020CB BECMG 2514/2517 20012KT TEMPO 2522/2601 1200 BR BKN012 BECMG 2601/2604 28015G25KT TEMPO 2601/2605 3000 -RA BKN007